Schneifelwetter: Wetterstation Hallschlag, 537 m . NN
Wetterdaten: Donnerstag, 13.09.2012
Datum Zeit Temp. A. Feuchte A. Luftdruck Regen Wind Richtung Richtung Sonnenschein T Regen Taupunkt Windchill
13.09.2012 00:14 3,7 C 91 % 1012 hPa 0,0 l/m 0,0 km/h (0 Bft) W-SW 255 0 min 0 min 2,4 C 3,7 C
13.09.2012 00:29 3,9 C 91 % 1012 hPa 0,0 l/m 0,0 km/h (0 Bft) W 260 0 min 0 min 2,6 C 3,9 C
13.09.2012 00:44 4,1 C 91 % 1012 hPa 0,0 l/m 0,0 km/h (0 Bft) W 260 0 min 0 min 2,8 C 4,1 C
13.09.2012 00:59 3,9 C 90 % 1012 hPa 0,0 l/m 0,0 km/h (0 Bft) W 260 0 min 0 min 2,4 C 3,9 C
13.09.2012 01:14 3,5 C 90 % 1012 hPa 0,0 l/m 0,0 km/h (0 Bft) W 260 0 min 0 min 2,0 C 3,5 C
13.09.2012 01:29 3,1 C 90 % 1012 hPa 0,0 l/m 0,0 km/h (0 Bft) W 260 0 min 0 min 1,6 C 3,1 C
13.09.2012 01:44 3,0 C 91 % 1012 hPa 0,0 l/m 0,0 km/h (0 Bft) W 260 0 min 0 min 1,7 C 3,0 C
13.09.2012 01:59 3,2 C 91 % 1012 hPa 0,0 l/m 0,0 km/h (0 Bft) W 260 0 min 0 min 1,9 C 3,2 C
13.09.2012 02:14 3,4 C 91 % 1012 hPa 0,0 l/m 0,9 km/h (0 Bft) W-SW 255 0 min 0 min 2,1 C 3,4 C
13.09.2012 02:29 4,4 C 93 % 1012 hPa 0,0 l/m 17,5 km/h (3 Bft) W22.5 260 0 min 0 min 3,4 C -2,9 C
13.09.2012 02:44 5,6 C 94 % 1012 hPa 0,0 l/m 9,5 km/h (2 Bft) W-SW22.5 250 0 min 0 min 4,7 C 3,1 C
13.09.2012 02:59 6,2 C 94 % 1012 hPa 0,0 l/m 9,0 km/h (2 Bft) SW22.5 215 0 min 0 min 5,3 C 4,1 C
13.09.2012 03:14 6,6 C 93 % 1012 hPa 0,0 l/m 0,6 km/h (0 Bft) SW 220 0 min 0 min 5,6 C 6,6 C
13.09.2012 03:29 6,7 C 92 % 1012 hPa 0,0 l/m 0,1 km/h (0 Bft) SW 220 0 min 0 min 5,5 C 6,7 C
13.09.2012 03:44 6,8 C 92 % 1012 hPa 0,0 l/m 11,3 km/h (2 Bft) SW 225 0 min 0 min 5,6 C 3,2 C
13.09.2012 03:59 7,2 C 92 % 1011 hPa 0,0 l/m 7,6 km/h (2 Bft) SW 225 0 min 0 min 6,0 C 6,2 C
13.09.2012 04:14 7,3 C 92 % 1011 hPa 0,0 l/m 5,4 km/h (1 Bft) SW 225 0 min 0 min 6,1 C 7,3 C
13.09.2012 04:29 7,4 C 92 % 1011 hPa 0,0 l/m 9,0 km/h (2 Bft) SW 225 0 min 0 min 6,2 C 5,4 C
13.09.2012 04:44 7,3 C 92 % 1011 hPa 0,0 l/m 5,7 km/h (1 Bft) SW 225 0 min 0 min 6,1 C 7,3 C
13.09.2012 04:59 7,2 C 92 % 1011 hPa 0,0 l/m 0,0 km/h (0 Bft) SW 225 0 min 0 min 6,0 C 7,2 C
13.09.2012 05:14 7,0 C 92 % 1011 hPa 0,0 l/m 8,2 km/h (2 Bft) SW 225 0 min 0 min 5,8 C 5,5 C
13.09.2012 05:29 7,1 C 92 % 1011 hPa 0,0 l/m 9,3 km/h (2 Bft) SW 225 0 min 0 min 5,9 C 4,9 C
13.09.2012 05:44 7,4 C 92 % 1011 hPa 0,0 l/m 8,7 km/h (2 Bft) SW 225 0 min 0 min 6,2 C 5,6 C
13.09.2012 05:59 7,5 C 92 % 1011 hPa 0,0 l/m 7,9 km/h (2 Bft) SW 225 0 min 0 min 6,3 C 6,3 C
13.09.2012 06:14 7,7 C 93 % 1011 hPa 0,0 l/m 10,1 km/h (2 Bft) SW 225 0 min 0 min 6,6 C 5,0 C
13.09.2012 06:29 7,8 C 93 % 1011 hPa 0,0 l/m 10,9 km/h (2 Bft) SW 225 0 min 0 min 6,7 C 4,6 C
13.09.2012 06:44 7,8 C 93 % 1011 hPa 0,0 l/m 6,8 km/h (2 Bft) S-SO 150 0 min 0 min 6,7 C 7,5 C
13.09.2012 06:59 7,8 C 93 % 1011 hPa 0,0 l/m 9,3 km/h (2 Bft) S 190 0 min 0 min 6,7 C 5,6 C
13.09.2012 07:14 7,7 C 93 % 1012 hPa 0,0 l/m 9,4 km/h (2 Bft) S 190 0 min 0 min 6,6 C 5,4 C
13.09.2012 07:29 7,8 C 93 % 1012 hPa 0,0 l/m 9,4 km/h (2 Bft) S-SW 195 0 min 0 min 6,7 C 5,6 C
13.09.2012 07:44 7,9 C 93 % 1012 hPa 0,0 l/m 7,7 km/h (2 Bft) S 190 0 min 0 min 6,8 C 6,9 C
13.09.2012 07:59 8,0 C 93 % 1012 hPa 0,0 l/m 10,1 km/h (2 Bft) S-SW 195 0 min 0 min 6,9 C 5,3 C
13.09.2012 08:14 8,2 C 94 % 1012 hPa 0,0 l/m 19,1 km/h (3 Bft) S-SW45 195 0 min 0 min 7,3 C 1,3 C
13.09.2012 08:29 8,6 C 94 % 1012 hPa 0,0 l/m 12,4 km/h (3 Bft) SW22.5 235 0 min 0 min 7,7 C 4,7 C
13.09.2012 08:44 8,7 C 94 % 1012 hPa 0,0 l/m 15,4 km/h (3 Bft) S-SW22.5 205 0 min 0 min 7,8 C 3,4 C
13.09.2012 08:59 9,1 C 93 % 1013 hPa 0,0 l/m 14,0 km/h (3 Bft) W-SW22.5 250 0 min 0 min 8,0 C 4,5 C
13.09.2012 09:14 9,2 C 93 % 1013 hPa 0,0 l/m 15,3 km/h (3 Bft) W22.5 260 0 min 0 min 8,1 C 4,0 C
13.09.2012 09:29 9,6 C 93 % 1013 hPa 0,0 l/m 15,3 km/h (3 Bft) W-SW22.5 250 0 min 0 min 8,5 C 4,5 C
13.09.2012 09:44 10,5 C 92 % 1013 hPa 0,0 l/m 16,3 km/h (3 Bft) W-SW22.5 250 0 min 0 min 9,3 C 5,2 C
13.09.2012 09:59 10,4 C 90 % 1013 hPa 0,0 l/m 12,6 km/h (3 Bft) W-SW45 255 0 min 0 min 8,8 C 6,7 C
13.09.2012 10:14 10,4 C 90 % 1013 hPa 0,0 l/m 11,8 km/h (2 Bft) W-SW 250 0 min 0 min 8,8 C 7,1 C
13.09.2012 10:29 10,7 C 90 % 1013 hPa 0,0 l/m 8,1 km/h (2 Bft) W-SW 255 0 min 0 min 9,1 C 9,5 C
13.09.2012 10:44 10,8 C 88 % 1014 hPa 0,0 l/m 9,2 km/h (2 Bft) W-SW22.5 245 0 min 0 min 8,9 C 8,9 C
13.09.2012 10:59 10,9 C 88 % 1014 hPa 0,0 l/m 10,6 km/h (2 Bft) W-SW22.5 245 0 min 0 min 9,0 C 8,3 C
13.09.2012 11:14 10,7 C 88 % 1014 hPa 0,0 l/m 7,5 km/h (2 Bft) W 265 0 min 0 min 8,8 C 9,9 C
13.09.2012 11:29 10,7 C 88 % 1014 hPa 0,0 l/m 1,3 km/h (1 Bft) W 265 0 min 0 min 8,8 C 10,7 C
13.09.2012 11:44 11,0 C 88 % 1014 hPa 0,0 l/m 0,0 km/h (0 Bft) W 265 0 min 0 min 9,1 C 11,0 C
13.09.2012 11:59 11,3 C 88 % 1014 hPa 0,0 l/m 0,0 km/h (0 Bft) W 265 0 min 0 min 9,4 C 11,3 C
13.09.2012 12:15 11,8 C 86 % 1014 hPa 0,0 l/m 4,9 km/h (1 Bft) W 265 0 min 0 min 9,5 C 11,8 C
13.09.2012 12:29 12,1 C 84 % 1014 hPa 0,0 l/m 3,0 km/h (1 Bft) W 260 0 min 0 min 9,5 C 12,1 C
13.09.2012 12:44 12,4 C 83 % 1014 hPa 0,0 l/m 0,0 km/h (0 Bft) W 260 0 min 0 min 9,6 C 12,4 C
13.09.2012 12:59 12,6 C 82 % 1015 hPa 0,0 l/m 0,0 km/h (0 Bft) W 260 0 min 0 min 9,6 C 12,6 C
13.09.2012 13:14 12,9 C 81 % 1015 hPa 0,0 l/m 6,8 km/h (2 Bft) W 260 0 min 0 min 9,7 C 12,7 C
13.09.2012 13:29 13,2 C 80 % 1015 hPa 0,0 l/m 6,8 km/h (2 Bft) SW 225 0 min 0 min 9,8 C 13,0 C
13.09.2012 13:45 13,7 C 79 % 1015 hPa 0,0 l/m 10,3 km/h (2 Bft) S-SW45 195 0 min 0 min 10,1 C 11,5 C
13.09.2012 13:59 14,6 C 77 % 1015 hPa 0,0 l/m 10,4 km/h (2 Bft) S-SW45 195 0 min 0 min 10,6 C 12,5 C
13.09.2012 14:14 15,2 C 74 % 1015 hPa 0,0 l/m 13,6 km/h (3 Bft) S-SW45 205 0 min 0 min 10,6 C 11,9 C
13.09.2012 14:29 14,6 C 73 % 1015 hPa 0,0 l/m 11,6 km/h (2 Bft) S-SW45 205 0 min 0 min 9,8 C 12,0 C
13.09.2012 14:44 13,8 C 73 % 1015 hPa 0,0 l/m 8,7 km/h (2 Bft) W-SW22.5 250 0 min 0 min 9,0 C 12,5 C
13.09.2012 14:59 13,2 C 74 % 1015 hPa 0,0 l/m 10,1 km/h (2 Bft) W22.5 260 0 min 0 min 8,7 C 11,1 C
13.09.2012 15:15 12,4 C 77 % 1015 hPa 0,0 l/m 5,0 km/h (1 Bft) N-NW22.5 330 0 min 0 min 8,5 C 12,4 C
13.09.2012 15:29 12,7 C 79 % 1015 hPa 0,0 l/m 0,4 km/h (0 Bft) W-NW22.5 290 0 min 0 min 9,2 C 12,7 C
13.09.2012 15:44 13,2 C 78 % 1016 hPa 0,0 l/m 0,6 km/h (0 Bft) W-SW 250 0 min 0 min 9,4 C 13,2 C
13.09.2012 15:59 13,3 C 76 % 1015 hPa 0,0 l/m 17,4 km/h (3 Bft) W45 275 0 min 0 min 9,2 C 8,3 C
13.09.2012 16:14 13,5 C 75 % 1015 hPa 0,0 l/m 7,2 km/h (2 Bft) W-NW22.5 295 0 min 0 min 9,2 C 13,0 C
13.09.2012 16:29 13,1 C 76 % 1015 hPa 0,0 l/m 11,2 km/h (2 Bft) W22.5 270 0 min 0 min 9,0 C 10,4 C
13.09.2012 16:45 12,7 C 78 % 1016 hPa 0,0 l/m 11,3 km/h (2 Bft) W 260 0 min 0 min 9,0 C 9,9 C
13.09.2012 16:59 12,8 C 78 % 1016 hPa 0,0 l/m 10,6 km/h (2 Bft) W22.5 280 0 min 0 min 9,1 C 10,4 C
13.09.2012 17:14 12,8 C 77 % 1016 hPa 0,0 l/m 11,1 km/h (2 Bft) W 270 0 min 0 min 8,9 C 10,1 C
13.09.2012 17:29 13,1 C 77 % 1016 hPa 0,0 l/m 8,1 km/h (2 Bft) W22.5 270 0 min 0 min 9,2 C 12,0 C
13.09.2012 17:44 13,0 C 76 % 1016 hPa 0,0 l/m 9,0 km/h (2 Bft) W-NW22.5 285 0 min 0 min 8,9 C 11,4 C
13.09.2012 17:59 13,2 C 76 % 1016 hPa 0,0 l/m 12,8 km/h (3 Bft) N22.5 5 0 min 0 min 9,1 C 9,9 C
13.09.2012 18:15 12,9 C 76 % 1016 hPa 0,0 l/m 6,5 km/h (2 Bft) N-NW 335 0 min 0 min 8,8 C 12,9 C
13.09.2012 18:29 12,6 C 76 % 1016 hPa 0,0 l/m 11,0 km/h (2 Bft) N-NW 335 0 min 0 min 8,5 C 10,0 C
13.09.2012 18:44 12,4 C 77 % 1016 hPa 0,0 l/m 1,0 km/h (0 Bft) NW 310 0 min 0 min 8,5 C 12,4 C
13.09.2012 18:59 12,1 C 78 % 1016 hPa 0,0 l/m 1,1 km/h (1 Bft) W-NW22.5 290 0 min 0 min 8,4 C 12,1 C
13.09.2012 19:14 11,8 C 78 % 1016 hPa 0,0 l/m 0,0 km/h (0 Bft) W-NW 295 0 min 0 min 8,1 C 11,8 C
13.09.2012 19:29 11,4 C 79 % 1016 hPa 0,0 l/m 0,0 km/h (0 Bft) W-NW 300 0 min 0 min 7,9 C 11,4 C
13.09.2012 19:44 10,9 C 80 % 1017 hPa 0,0 l/m 0,0 km/h (0 Bft) W-NW 300 0 min 0 min 7,6 C 10,9 C
13.09.2012 19:59 10,2 C 81 % 1017 hPa 0,0 l/m 0,0 km/h (0 Bft) W-NW 300 0 min 0 min 7,1 C 10,2 C
13.09.2012 20:14 9,6 C 82 % 1017 hPa 0,0 l/m 0,0 km/h (0 Bft) W-NW 295 0 min 0 min 6,7 C 9,6 C
13.09.2012 20:29 8,8 C 83 % 1017 hPa 0,0 l/m 0,0 km/h (0 Bft) W-NW 300 0 min 0 min 6,1 C 8,8 C
13.09.2012 20:44 8,1 C 83 % 1017 hPa 0,0 l/m 0,0 km/h (0 Bft) W-NW 295 0 min 0 min 5,4 C 8,1 C
13.09.2012 20:59 7,4 C 84 % 1017 hPa 0,0 l/m 0,0 km/h (0 Bft) W-NW 295 0 min 0 min 4,9 C 7,4 C
13.09.2012 21:14 7,2 C 86 % 1017 hPa 0,0 l/m 0,0 km/h (0 Bft) W-NW 295 0 min 0 min 5,0 C 7,2 C
13.09.2012 21:29 7,2 C 87 % 1017 hPa 0,0 l/m 0,0 km/h (0 Bft) W-NW 295 0 min 0 min 5,2 C 7,2 C
13.09.2012 21:44 7,0 C 87 % 1018 hPa 0,0 l/m 0,0 km/h (0 Bft) W-NW 295 0 min 0 min 5,0 C 7,0 C
13.09.2012 21:59 6,6 C 87 % 1018 hPa 0,0 l/m 0,0 km/h (0 Bft) W-NW 300 0 min 0 min 4,6 C 6,6 C
13.09.2012 22:14 6,0 C 88 % 1017 hPa 0,0 l/m 0,0 km/h (0 Bft) W-NW 300 0 min 0 min 4,2 C 6,0 C
13.09.2012 22:29 5,9 C 89 % 1017 hPa 0,0 l/m 0,0 km/h (0 Bft) W-NW 295 0 min 0 min 4,2 C 5,9 C
13.09.2012 22:44 5,6 C 89 % 1017 hPa 0,0 l/m 0,0 km/h (0 Bft) W-NW 295 0 min 0 min 3,9 C 5,6 C
13.09.2012 22:59 5,2 C 89 % 1017 hPa 0,0 l/m 0,0 km/h (0 Bft) W-NW 295 0 min 0 min 3,5 C 5,2 C
13.09.2012 23:14 5,2 C 91 % 1017 hPa 0,0 l/m 0,0 km/h (0 Bft) W-NW45 295 0 min 0 min 3,9 C 5,2 C
13.09.2012 23:29 4,7 C 91 % 1017 hPa 0,0 l/m 0,0 km/h (0 Bft) W-NW 295 0 min 0 min 3,4 C 4,7 C
13.09.2012 23:44 4,4 C 91 % 1017 hPa 0,0 l/m 0,0 km/h (0 Bft) W-NW 295 0 min 0 min 3,1 C 4,4 C
13.09.2012 23:59 4,3 C 92 % 1017 hPa 0,0 l/m 0,0 km/h (0 Bft) W-NW 295 0 min 0 min 3,1 C 4,3 C
_ Min-Zeit 01:44 14:29 03:59 - 00:14 - - - - 01:29 02:29
Minimum _ 3,0 C 73 % 1011 hPa - 0,0 km/h (0 Bft) - - - - 1,6 C -2,9 C
_ Max-Zeit 14:14 02:44 21:44 00:14 08:14 - - 00:14 00:14 13:59 15:44
Maximum _ 15,2 C 94 % 1018 hPa 0,0 l/m 19,1 km/h
S-SW (3 Bft)
- - 0 min 0 min 10,6 C 13,2 C
Durchschnitt _ 9,1 C 86 % 1014 hPa #0,0 l/m 5,9 km/h (2 Bft) SW - #0 min. #0 min. 6,8 C 7,7 C